createdAt,value
2017-12-02T00:00:40.535Z,1006.86
2017-12-02T00:01:40.549Z,1006.86
2017-12-02T00:02:40.563Z,1006.86
2017-12-02T00:03:40.574Z,1006.87
2017-12-02T00:04:40.594Z,1006.91
2017-12-02T00:05:40.603Z,1006.90
2017-12-02T00:06:40.617Z,1006.92
2017-12-02T00:07:40.628Z,1006.93
2017-12-02T00:08:40.641Z,1006.93
2017-12-02T00:09:40.658Z,1006.94
2017-12-02T00:10:40.667Z,1006.98
2017-12-02T00:11:40.681Z,1006.98
2017-12-02T00:12:40.695Z,1006.98
2017-12-02T00:13:40.706Z,1006.98
2017-12-02T00:14:40.721Z,1007.03
2017-12-02T00:15:40.755Z,1007.03
2017-12-02T00:16:40.746Z,1007.01
2017-12-02T00:17:40.761Z,1007.05
2017-12-02T00:18:40.782Z,1007.02
2017-12-02T00:19:40.787Z,1007.04
2017-12-02T00:20:40.851Z,1007.01
2017-12-02T00:21:40.813Z,1007.02
2017-12-02T00:22:40.830Z,1007.07
2017-12-02T00:23:40.840Z,1007.06
2017-12-02T00:24:40.857Z,1007.07
2017-12-02T00:25:40.868Z,1007.10
2017-12-02T00:26:40.880Z,1007.13
2017-12-02T00:27:40.892Z,1007.15
2017-12-02T00:28:40.906Z,1007.12
2017-12-02T00:29:40.923Z,1007.13
2017-12-02T00:30:40.939Z,1007.15
2017-12-02T00:31:40.946Z,1007.16
2017-12-02T00:32:40.961Z,1007.20
2017-12-02T00:33:40.973Z,1007.15
2017-12-02T00:34:40.988Z,1007.16
2017-12-02T00:35:41.000Z,1007.20
2017-12-02T00:36:41.015Z,1007.23
2017-12-02T00:37:41.032Z,1007.25
2017-12-02T00:38:41.045Z,1007.29
2017-12-02T00:39:41.058Z,1007.28
2017-12-02T00:40:41.070Z,1007.30
2017-12-02T00:41:41.082Z,1007.27
2017-12-02T00:42:41.099Z,1007.28
2017-12-02T00:43:41.108Z,1007.26
2017-12-02T00:44:41.128Z,1007.28
2017-12-02T00:45:41.137Z,1007.35
2017-12-02T00:46:41.153Z,1007.33
2017-12-02T00:47:41.163Z,1007.34
2017-12-02T00:48:41.176Z,1007.37
2017-12-02T00:49:41.192Z,1007.38
2017-12-02T00:50:41.201Z,1007.36
2017-12-02T00:51:41.217Z,1007.41
2017-12-02T00:52:41.234Z,1007.39
2017-12-02T00:53:41.244Z,1007.42
2017-12-02T00:54:41.257Z,1007.42
2017-12-02T00:55:41.270Z,1007.41
2017-12-02T00:56:41.288Z,1007.41
2017-12-02T00:57:41.301Z,1007.41
2017-12-02T00:58:41.363Z,1007.45
2017-12-02T00:59:41.324Z,1007.46
2017-12-02T01:00:41.342Z,1007.50
2017-12-02T01:01:41.352Z,1007.51
2017-12-02T01:02:41.365Z,1007.48
2017-12-02T01:03:41.377Z,1007.49
2017-12-02T01:04:41.390Z,1007.46
2017-12-02T01:05:41.404Z,1007.50
2017-12-02T01:06:41.417Z,1007.46
2017-12-02T01:07:41.433Z,1007.45
2017-12-02T01:08:41.443Z,1007.49
2017-12-02T01:09:41.460Z,1007.47
2017-12-02T01:10:41.475Z,1007.46
2017-12-02T01:11:41.488Z,1007.48
2017-12-02T01:12:41.500Z,1007.50
2017-12-02T01:13:41.517Z,1007.48
2017-12-02T01:14:41.527Z,1007.51
2017-12-02T01:15:41.539Z,1007.52
2017-12-02T01:16:41.553Z,1007.55
2017-12-02T01:17:41.602Z,1007.53
2017-12-02T01:18:41.581Z,1007.52
2017-12-02T01:19:42.597Z,1007.52
2017-12-02T01:20:41.609Z,1007.51
2017-12-02T01:21:41.621Z,1007.51
2017-12-02T01:22:41.637Z,1007.58
2017-12-02T01:23:41.649Z,1007.54
2017-12-02T01:24:41.660Z,1007.52
2017-12-02T01:25:41.674Z,1007.54
2017-12-02T01:26:41.688Z,1007.56
2017-12-02T01:27:41.701Z,1007.58
2017-12-02T01:28:41.715Z,1007.57
2017-12-02T01:29:41.727Z,1007.55
2017-12-02T01:30:41.741Z,1007.57
2017-12-02T01:31:41.756Z,1007.60
2017-12-02T01:32:41.769Z,1007.62
2017-12-02T01:33:41.782Z,1007.63
2017-12-02T01:34:41.797Z,1007.62
2017-12-02T01:35:41.815Z,1007.61
2017-12-02T01:36:41.824Z,1007.65
2017-12-02T01:37:41.836Z,1007.66
2017-12-02T01:38:41.849Z,1007.70
2017-12-02T01:39:41.860Z,1007.69
2017-12-02T01:40:41.877Z,1007.69
2017-12-02T01:41:41.890Z,1007.76
2017-12-02T01:42:41.909Z,1007.77
2017-12-02T01:43:41.916Z,1007.77
2017-12-02T01:44:41.931Z,1007.81
2017-12-02T01:45:41.947Z,1007.81
2017-12-02T01:46:41.962Z,1007.82
2017-12-02T01:47:41.971Z,1007.83
2017-12-02T01:48:41.985Z,1007.82
2017-12-02T01:49:41.999Z,1007.86
2017-12-02T01:50:42.012Z,1007.89
2017-12-02T01:51:42.026Z,1007.93
2017-12-02T01:52:42.039Z,1007.93
2017-12-02T01:53:42.060Z,1007.92
2017-12-02T01:54:42.068Z,1007.94
2017-12-02T01:55:42.130Z,1007.97
2017-12-02T01:56:42.096Z,1007.95
2017-12-02T01:57:42.112Z,1008.01
2017-12-02T01:58:42.123Z,1008.00
2017-12-02T01:59:42.133Z,1008.06
2017-12-02T02:00:42.150Z,1008.03
2017-12-02T02:01:42.166Z,1008.03
2017-12-02T02:02:42.180Z,1008.07
2017-12-02T02:03:42.194Z,1008.09
2017-12-02T02:04:42.206Z,1008.09
2017-12-02T02:05:42.215Z,1008.08
2017-12-02T02:06:42.229Z,1008.13
2017-12-02T02:07:42.243Z,1008.14
2017-12-02T02:08:42.257Z,1008.14
2017-12-02T02:09:42.275Z,1008.13
2017-12-02T02:10:42.285Z,1008.17
2017-12-02T02:11:42.296Z,1008.16
2017-12-02T02:12:42.313Z,1008.22
2017-12-02T02:13:42.327Z,1008.20
2017-12-02T02:14:42.351Z,1008.21
2017-12-02T02:15:42.357Z,1008.21
2017-12-02T02:16:42.367Z,1008.21
2017-12-02T02:17:42.378Z,1008.21
2017-12-02T02:18:42.394Z,1008.24
2017-12-02T02:19:42.415Z,1008.26
2017-12-02T02:20:42.420Z,1008.22
2017-12-02T02:21:42.436Z,1008.28
2017-12-02T02:22:42.450Z,1008.27
2017-12-02T02:23:42.463Z,1008.28
2017-12-02T02:24:42.477Z,1008.28
2017-12-02T02:25:42.493Z,1008.26
2017-12-02T02:26:42.502Z,1008.31
2017-12-02T02:27:42.517Z,1008.26
2017-12-02T02:28:42.535Z,1008.36
2017-12-02T02:29:42.548Z,1008.31
2017-12-02T02:30:42.561Z,1008.33
2017-12-02T02:31:42.576Z,1008.31
2017-12-02T02:32:42.585Z,1008.32
2017-12-02T02:33:42.616Z,1008.32
2017-12-02T02:34:42.622Z,1008.31
2017-12-02T02:35:42.627Z,1008.32
2017-12-02T02:36:42.640Z,1008.30
2017-12-02T02:37:42.667Z,1008.28
2017-12-02T02:38:42.670Z,1008.28
2017-12-02T02:39:42.700Z,1008.29
2017-12-02T02:40:42.695Z,1008.33
2017-12-02T02:41:42.717Z,1008.34
2017-12-02T02:42:42.724Z,1008.35
2017-12-02T02:43:42.735Z,1008.34
2017-12-02T02:44:42.751Z,1008.36
2017-12-02T02:45:42.767Z,1008.34
2017-12-02T02:46:42.778Z,1008.33
2017-12-02T02:47:42.789Z,1008.35
2017-12-02T02:48:42.806Z,1008.37
2017-12-02T02:49:42.819Z,1008.39
2017-12-02T02:50:42.834Z,1008.38
2017-12-02T02:51:42.845Z,1008.40
2017-12-02T02:52:42.860Z,1008.43
2017-12-02T02:53:42.871Z,1008.40
2017-12-02T02:54:42.887Z,1008.38
2017-12-02T02:55:42.903Z,1008.39
2017-12-02T02:56:42.915Z,1008.40
2017-12-02T02:57:42.928Z,1008.40
2017-12-02T02:58:42.942Z,1008.43
2017-12-02T02:59:42.954Z,1008.39
2017-12-02T03:00:42.973Z,1008.41
2017-12-02T03:01:42.986Z,1008.41
2017-12-02T03:02:43.000Z,1008.43
2017-12-02T03:03:43.010Z,1008.49
2017-12-02T03:04:43.025Z,1008.45
2017-12-02T03:05:43.047Z,1008.53
2017-12-02T03:06:43.052Z,1008.48
2017-12-02T03:07:43.092Z,1008.45
2017-12-02T03:08:43.078Z,1008.51
2017-12-02T03:09:43.092Z,1008.51
2017-12-02T03:10:43.109Z,1008.50
2017-12-02T03:11:43.123Z,1008.51
2017-12-02T03:12:43.136Z,1008.52
2017-12-02T03:13:43.149Z,1008.52
2017-12-02T03:14:43.163Z,1008.53
2017-12-02T03:15:43.175Z,1008.54
2017-12-02T03:16:43.191Z,1008.53
2017-12-02T03:17:43.205Z,1008.55
2017-12-02T03:18:43.217Z,1008.57
2017-12-02T03:19:43.280Z,1008.52
2017-12-02T03:20:43.246Z,1008.51
2017-12-02T03:21:43.261Z,1008.55
2017-12-02T03:22:43.271Z,1008.54
2017-12-02T03:23:43.287Z,1008.52
2017-12-02T03:24:43.301Z,1008.57
2017-12-02T03:25:43.313Z,1008.51
2017-12-02T03:26:43.329Z,1008.55
2017-12-02T03:27:43.341Z,1008.59
2017-12-02T03:28:43.870Z,1008.56
2017-12-02T03:29:43.371Z,1008.55
2017-12-02T03:30:43.385Z,1008.56
2017-12-02T03:31:43.396Z,1008.56
2017-12-02T03:32:43.409Z,1008.55
2017-12-02T03:33:43.424Z,1008.55
2017-12-02T03:34:43.439Z,1008.56
2017-12-02T03:35:43.451Z,1008.59
2017-12-02T03:36:43.472Z,1008.62
2017-12-02T03:37:43.481Z,1008.65
2017-12-02T03:38:43.493Z,1008.66
2017-12-02T03:39:43.508Z,1008.69
2017-12-02T03:40:43.521Z,1008.66
2017-12-02T03:41:43.534Z,1008.66
2017-12-02T03:42:43.551Z,1008.68
2017-12-02T03:43:43.564Z,1008.68
2017-12-02T03:44:43.577Z,1008.70
2017-12-02T03:45:43.587Z,1008.72
2017-12-02T03:46:43.603Z,1008.70
2017-12-02T03:47:43.616Z,1008.70
2017-12-02T03:48:43.630Z,1008.71
2017-12-02T03:49:43.641Z,1008.73
2017-12-02T03:50:43.655Z,1008.72
2017-12-02T03:51:43.671Z,1008.71
2017-12-02T03:52:43.681Z,1008.73
2017-12-02T03:53:43.699Z,1008.76
2017-12-02T03:54:43.711Z,1008.74
2017-12-02T03:55:43.725Z,1008.74
2017-12-02T03:56:43.796Z,1008.77
2017-12-02T03:57:43.752Z,1008.75
2017-12-02T03:58:43.765Z,1008.76
2017-12-02T03:59:43.834Z,1008.78
2017-12-02T04:00:43.796Z,1008.76
2017-12-02T04:01:43.806Z,1008.83
2017-12-02T04:02:43.874Z,1008.79
2017-12-02T04:03:43.992Z,1008.81
2017-12-02T04:04:43.850Z,1008.81
2017-12-02T04:05:43.861Z,1008.79
2017-12-02T04:06:43.875Z,1008.79
2017-12-02T04:07:43.889Z,1008.79
2017-12-02T04:08:43.902Z,1008.85
2017-12-02T04:09:43.917Z,1008.83
2017-12-02T04:10:43.929Z,1008.82
2017-12-02T04:11:43.943Z,1008.85
2017-12-02T04:12:43.956Z,1008.83
2017-12-02T04:13:43.968Z,1008.83
2017-12-02T04:14:43.983Z,1008.87
2017-12-02T04:15:43.997Z,1008.88
2017-12-02T04:16:44.009Z,1008.91
2017-12-02T04:17:44.023Z,1008.91
2017-12-02T04:18:44.037Z,1008.89
2017-12-02T04:19:44.049Z,1008.92
2017-12-02T04:20:44.062Z,1008.93
2017-12-02T04:21:44.077Z,1008.93
2017-12-02T04:22:44.096Z,1008.95
2017-12-02T04:23:44.105Z,1008.98
2017-12-02T04:24:44.118Z,1008.96
2017-12-02T04:25:44.131Z,1009.00
2017-12-02T04:26:44.144Z,1008.97
2017-12-02T04:27:44.156Z,1009.04
2017-12-02T04:28:44.170Z,1009.04
2017-12-02T04:29:44.183Z,1009.01
2017-12-02T04:30:44.196Z,1009.02
2017-12-02T04:31:44.208Z,1009.05
2017-12-02T04:32:44.221Z,1009.04
2017-12-02T04:33:44.240Z,1009.02
2017-12-02T04:34:44.253Z,1009.04
2017-12-02T04:35:44.267Z,1009.04
2017-12-02T04:36:44.277Z,1009.03
2017-12-02T04:37:44.296Z,1009.03
2017-12-02T04:38:44.309Z,1009.05
2017-12-02T04:39:44.320Z,1009.03
2017-12-02T04:40:44.332Z,1009.03
2017-12-02T04:41:44.347Z,1009.03
2017-12-02T04:42:44.360Z,1009.01
2017-12-02T04:43:44.374Z,1009.04
2017-12-02T04:44:44.385Z,1009.07
2017-12-02T04:45:44.399Z,1009.09
2017-12-02T04:46:44.415Z,1009.13
2017-12-02T04:47:44.430Z,1009.13
2017-12-02T04:48:44.440Z,1009.13
2017-12-02T04:49:44.454Z,1009.16
2017-12-02T04:50:44.470Z,1009.16
2017-12-02T04:51:44.483Z,1009.17
2017-12-02T04:52:44.494Z,1009.18
2017-12-02T04:53:44.508Z,1009.19
2017-12-02T04:54:44.523Z,1009.23
2017-12-02T04:55:44.535Z,1009.24
2017-12-02T04:56:44.555Z,1009.20
2017-12-02T04:57:44.562Z,1009.19
2017-12-02T04:58:44.576Z,1009.22
2017-12-02T04:59:44.587Z,1009.19
2017-12-02T05:00:44.605Z,1009.20
2017-12-02T05:01:44.617Z,1009.16
2017-12-02T05:02:44.631Z,1009.12
2017-12-02T05:03:44.643Z,1009.09
2017-12-02T05:04:44.655Z,1009.08
2017-12-02T05:05:44.670Z,1009.07
2017-12-02T05:06:44.685Z,1009.09
2017-12-02T05:07:44.695Z,1009.10
2017-12-02T05:08:44.709Z,1009.13
2017-12-02T05:09:44.723Z,1009.09
2017-12-02T05:10:44.736Z,1009.14
2017-12-02T05:11:44.779Z,1009.12
2017-12-02T05:12:44.763Z,1009.12
2017-12-02T05:13:44.778Z,1009.13
2017-12-02T05:14:44.792Z,1009.17
2017-12-02T05:15:44.804Z,1009.14
2017-12-02T05:16:44.820Z,1009.15
2017-12-02T05:17:44.836Z,1009.20
2017-12-02T05:18:44.849Z,1009.17
2017-12-02T05:19:44.855Z,1009.17
2017-12-02T05:20:44.870Z,1009.22
2017-12-02T05:21:44.889Z,1009.21
2017-12-02T05:22:44.894Z,1009.23
2017-12-02T05:23:44.950Z,1009.25
2017-12-02T05:24:44.935Z,1009.24
2017-12-02T05:25:44.937Z,1009.19
2017-12-02T05:26:44.951Z,1009.19
2017-12-02T05:27:44.963Z,1009.17
2017-12-02T05:28:44.976Z,1009.18
2017-12-02T05:29:44.991Z,1009.16
2017-12-02T05:30:45.003Z,1009.16
2017-12-02T05:31:45.016Z,1009.19
2017-12-02T05:32:45.033Z,1009.18
2017-12-02T05:33:45.044Z,1009.19
2017-12-02T05:34:45.059Z,1009.19
2017-12-02T05:35:45.072Z,1009.19
2017-12-02T05:36:45.084Z,1009.22
2017-12-02T05:37:45.096Z,1009.22
2017-12-02T05:38:45.111Z,1009.24
2017-12-02T05:39:45.122Z,1009.25
2017-12-02T05:40:45.138Z,1009.23
2017-12-02T05:41:45.170Z,1009.27
2017-12-02T05:42:45.163Z,1009.23
2017-12-02T05:43:45.176Z,1009.29
2017-12-02T05:44:45.193Z,1009.27
2017-12-02T05:45:45.214Z,1009.30
2017-12-02T05:46:45.219Z,1009.31
2017-12-02T05:47:45.236Z,1009.32
2017-12-02T05:48:45.245Z,1009.34
2017-12-02T05:49:45.258Z,1009.37
2017-12-02T05:50:45.270Z,1009.39
2017-12-02T05:51:45.285Z,1009.37
2017-12-02T05:52:45.296Z,1009.38
2017-12-02T05:53:45.311Z,1009.35
2017-12-02T05:54:45.326Z,1009.37
2017-12-02T05:55:45.337Z,1009.40
2017-12-02T05:56:45.349Z,1009.44
2017-12-02T05:57:45.366Z,1009.41
2017-12-02T05:58:45.378Z,1009.46
2017-12-02T05:59:45.389Z,1009.44
2017-12-02T06:00:45.418Z,1009.47
2017-12-02T06:01:45.416Z,1009.51
2017-12-02T06:02:45.428Z,1009.54
2017-12-02T06:03:45.442Z,1009.54
2017-12-02T06:04:45.460Z,1009.52
2017-12-02T06:05:45.467Z,1009.53
2017-12-02T06:06:45.482Z,1009.55
2017-12-02T06:07:45.495Z,1009.60
2017-12-02T06:08:45.524Z,1009.62
2017-12-02T06:09:45.523Z,1009.63
2017-12-02T06:10:45.577Z,1009.61
2017-12-02T06:11:45.551Z,1009.64
2017-12-02T06:12:45.558Z,1009.63
2017-12-02T06:13:45.572Z,1009.63
2017-12-02T06:14:45.588Z,1009.65
2017-12-02T06:15:45.604Z,1009.67
2017-12-02T06:16:45.611Z,1009.68
2017-12-02T06:17:45.624Z,1009.69
2017-12-02T06:18:45.643Z,1009.73
2017-12-02T06:19:45.659Z,1009.69
2017-12-02T06:20:45.664Z,1009.69
2017-12-02T06:21:45.680Z,1009.73
2017-12-02T06:22:45.691Z,1009.74
2017-12-02T06:23:45.704Z,1009.74
2017-12-02T06:24:45.716Z,1009.70
2017-12-02T06:25:45.733Z,1009.72
2017-12-02T06:26:45.757Z,1009.74
2017-12-02T06:27:45.756Z,1009.76
2017-12-02T06:28:45.767Z,1009.75
2017-12-02T06:29:45.780Z,1009.78
2017-12-02T06:30:45.796Z,1009.82
2017-12-02T06:31:45.806Z,1009.80
2017-12-02T06:32:45.829Z,1009.82
2017-12-02T06:33:45.843Z,1009.77
2017-12-02T06:34:45.845Z,1009.83
2017-12-02T06:35:45.855Z,1009.87
2017-12-02T06:36:45.870Z,1009.83
2017-12-02T06:37:46.039Z,1009.83
2017-12-02T06:38:45.894Z,1009.81
2017-12-02T06:39:45.909Z,1009.85
2017-12-02T06:40:45.920Z,1009.84
2017-12-02T06:41:45.935Z,1009.83
2017-12-02T06:42:45.947Z,1009.88
2017-12-02T06:43:45.959Z,1009.94
2017-12-02T06:44:45.974Z,1009.89
2017-12-02T06:45:45.991Z,1009.89
2017-12-02T06:46:45.997Z,1009.89
2017-12-02T06:47:46.009Z,1009.88
2017-12-02T06:48:46.023Z,1009.88
2017-12-02T06:49:46.038Z,1009.92
2017-12-02T06:50:46.050Z,1009.93
2017-12-02T06:51:46.060Z,1009.94
2017-12-02T06:52:46.078Z,1009.99
2017-12-02T06:53:46.087Z,1009.97
2017-12-02T06:54:46.101Z,1009.96
2017-12-02T06:55:46.116Z,1010.03
2017-12-02T06:56:46.126Z,1009.98
2017-12-02T06:57:46.138Z,1009.99
2017-12-02T06:58:46.150Z,1009.97
2017-12-02T06:59:46.169Z,1009.97
2017-12-02T07:00:46.176Z,1009.98
2017-12-02T07:01:46.190Z,1010.00
2017-12-02T07:02:46.205Z,1010.02
2017-12-02T07:03:46.216Z,1010.05
2017-12-02T07:04:46.229Z,1010.06
2017-12-02T07:05:46.240Z,1010.05
2017-12-02T07:06:46.250Z,1010.10
2017-12-02T07:07:46.264Z,1010.07
2017-12-02T07:08:46.278Z,1010.09
2017-12-02T07:09:46.293Z,1010.13
2017-12-02T07:10:46.304Z,1010.12
2017-12-02T07:11:46.314Z,1010.12
2017-12-02T07:12:46.328Z,1010.14
2017-12-02T07:13:46.341Z,1010.16
2017-12-02T07:14:46.354Z,1010.17
2017-12-02T07:15:46.368Z,1010.19
2017-12-02T07:16:46.380Z,1010.19
2017-12-02T07:17:46.394Z,1010.19
2017-12-02T07:18:46.407Z,1010.23
2017-12-02T07:19:46.419Z,1010.24
2017-12-02T07:20:46.432Z,1010.21
2017-12-02T07:21:46.444Z,1010.25
2017-12-02T07:22:46.458Z,1010.20
2017-12-02T07:23:46.473Z,1010.27
2017-12-02T07:24:46.485Z,1010.26
2017-12-02T07:25:46.496Z,1010.32
2017-12-02T07:26:46.510Z,1010.29
2017-12-02T07:27:46.522Z,1010.31
2017-12-02T07:28:46.564Z,1010.31
2017-12-02T07:29:46.555Z,1010.34
2017-12-02T07:30:46.562Z,1010.37
2017-12-02T07:31:46.575Z,1010.36
2017-12-02T07:32:46.591Z,1010.40
2017-12-02T07:33:46.601Z,1010.44
2017-12-02T07:34:46.614Z,1010.42
2017-12-02T07:35:46.630Z,1010.41
2017-12-02T07:36:46.642Z,1010.43
2017-12-02T07:37:46.671Z,1010.44
2017-12-02T07:38:46.670Z,1010.46
2017-12-02T07:39:46.683Z,1010.49
2017-12-02T07:40:46.698Z,1010.50
2017-12-02T07:41:46.706Z,1010.53
2017-12-02T07:42:46.722Z,1010.54
2017-12-02T07:43:46.732Z,1010.56
2017-12-02T07:44:46.747Z,1010.58
2017-12-02T07:45:46.757Z,1010.57
2017-12-02T07:46:46.770Z,1010.58
2017-12-02T07:47:46.783Z,1010.55
2017-12-02T07:48:46.798Z,1010.56
2017-12-02T07:49:46.810Z,1010.55
2017-12-02T07:50:46.825Z,1010.57
2017-12-02T07:51:46.844Z,1010.60
2017-12-02T07:52:46.850Z,1010.55
2017-12-02T07:53:46.864Z,1010.60
2017-12-02T07:54:46.881Z,1010.58
2017-12-02T07:55:46.891Z,1010.60
2017-12-02T07:56:46.905Z,1010.64
2017-12-02T07:57:46.918Z,1010.61
2017-12-02T07:58:46.931Z,1010.64
2017-12-02T07:59:46.945Z,1010.65
2017-12-02T08:00:46.974Z,1010.65
2017-12-02T08:01:46.988Z,1010.67
2017-12-02T08:02:46.985Z,1010.70
2017-12-02T08:03:46.996Z,1010.67
2017-12-02T08:04:47.019Z,1010.70
2017-12-02T08:05:47.023Z,1010.70
2017-12-02T08:06:47.038Z,1010.68
2017-12-02T08:07:47.055Z,1010.72
2017-12-02T08:08:47.063Z,1010.74
2017-12-02T08:09:47.076Z,1010.75
2017-12-02T08:10:47.090Z,1010.74
2017-12-02T08:11:47.147Z,1010.77
2017-12-02T08:12:47.127Z,1010.80
2017-12-02T08:13:47.132Z,1010.80
2017-12-02T08:14:47.294Z,1010.81
2017-12-02T08:15:47.158Z,1010.83
2017-12-02T08:16:47.170Z,1010.78
2017-12-02T08:17:47.183Z,1010.79
2017-12-02T08:18:47.197Z,1010.77
2017-12-02T08:19:47.208Z,1010.79
2017-12-02T08:20:47.223Z,1010.78
2017-12-02T08:21:47.236Z,1010.78
2017-12-02T08:22:47.252Z,1010.81
2017-12-02T08:23:47.263Z,1010.78
2017-12-02T08:24:47.275Z,1010.76
2017-12-02T08:25:47.297Z,1010.81
2017-12-02T08:26:47.304Z,1010.79
2017-12-02T08:27:47.315Z,1010.79
2017-12-02T08:28:47.334Z,1010.78
2017-12-02T08:29:47.350Z,1010.79
2017-12-02T08:30:47.360Z,1010.78
2017-12-02T08:31:47.377Z,1010.79
2017-12-02T08:32:47.385Z,1010.77
2017-12-02T08:33:47.399Z,1010.75
2017-12-02T08:34:47.412Z,1010.72
2017-12-02T08:35:47.424Z,1010.72
2017-12-02T08:36:47.437Z,1010.74
2017-12-02T08:37:47.451Z,1010.76
2017-12-02T08:38:47.468Z,1010.79
2017-12-02T08:39:47.485Z,1010.76
2017-12-02T08:40:47.490Z,1010.78
2017-12-02T08:41:47.505Z,1010.79
2017-12-02T08:42:47.527Z,1010.78
2017-12-02T08:43:47.532Z,1010.77
2017-12-02T08:44:47.616Z,1010.79
2017-12-02T08:45:47.568Z,1010.79
2017-12-02T08:46:47.587Z,1010.79
2017-12-02T08:47:47.588Z,1010.78
2017-12-02T08:48:47.604Z,1010.81
2017-12-02T08:49:47.614Z,1010.84
2017-12-02T08:50:47.634Z,1010.84
2017-12-02T08:51:47.640Z,1010.86
2017-12-02T08:52:47.654Z,1010.88
2017-12-02T08:53:47.666Z,1010.83
2017-12-02T08:54:47.680Z,1010.82
2017-12-02T08:55:47.693Z,1010.83
2017-12-02T08:56:47.713Z,1010.81
2017-12-02T08:57:47.726Z,1010.87
2017-12-02T08:58:47.742Z,1010.90
2017-12-02T08:59:47.748Z,1010.87
2017-12-02T09:00:47.766Z,1010.87
2017-12-02T09:01:47.774Z,1010.87
2017-12-02T09:02:47.796Z,1010.90
2017-12-02T09:03:47.804Z,1010.90
2017-12-02T09:04:47.818Z,1010.91
2017-12-02T09:05:47.864Z,1010.92
2017-12-02T09:06:47.845Z,1010.92
2017-12-02T09:07:47.857Z,1010.96
2017-12-02T09:08:47.872Z,1010.93
2017-12-02T09:09:47.886Z,1010.95
2017-12-02T09:10:47.900Z,1010.93
2017-12-02T09:11:47.918Z,1010.94
2017-12-02T09:12:47.928Z,1010.98
2017-12-02T09:13:47.943Z,1011.00
2017-12-02T09:14:47.969Z,1010.99
2017-12-02T09:15:47.968Z,1011.04
2017-12-02T09:16:48.041Z,1011.06
2017-12-02T09:17:47.996Z,1011.07
2017-12-02T09:18:48.012Z,1011.09
2017-12-02T09:19:48.033Z,1011.10
2017-12-02T09:20:48.038Z,1011.10
2017-12-02T09:21:48.054Z,1011.13
2017-12-02T09:22:48.066Z,1011.13
2017-12-02T09:23:48.078Z,1011.14
2017-12-02T09:24:48.096Z,1011.13
2017-12-02T09:25:48.110Z,1011.14
2017-12-02T09:26:48.120Z,1011.18
2017-12-02T09:27:48.131Z,1011.15
2017-12-02T09:28:48.152Z,1011.19
2017-12-02T09:29:48.161Z,1011.18
2017-12-02T09:30:48.173Z,1011.19
2017-12-02T09:31:48.189Z,1011.19
2017-12-02T09:32:48.203Z,1011.16
2017-12-02T09:33:48.239Z,1011.17
2017-12-02T09:34:48.230Z,1011.17
2017-12-02T09:35:48.249Z,1011.18
2017-12-02T09:36:48.257Z,1011.20
2017-12-02T09:37:48.475Z,1011.21
2017-12-02T09:38:48.284Z,1011.23
2017-12-02T09:39:48.299Z,1011.24
2017-12-02T09:40:48.315Z,1011.29
2017-12-02T09:41:48.333Z,1011.29
2017-12-02T09:42:48.343Z,1011.30
2017-12-02T09:43:48.361Z,1011.34
2017-12-02T09:44:48.370Z,1011.36
2017-12-02T09:45:48.381Z,1011.31
2017-12-02T09:46:48.395Z,1011.35
2017-12-02T09:47:48.409Z,1011.35
2017-12-02T09:48:48.421Z,1011.35
2017-12-02T09:49:48.475Z,1011.31
2017-12-02T09:50:48.456Z,1011.31
2017-12-02T09:51:48.466Z,1011.38
2017-12-02T09:52:48.480Z,1011.35
2017-12-02T09:53:48.493Z,1011.37
2017-12-02T09:54:48.507Z,1011.38
2017-12-02T09:55:48.545Z,1011.37
2017-12-02T09:56:48.530Z,1011.42
2017-12-02T09:57:48.548Z,1011.43
2017-12-02T09:58:48.576Z,1011.40
2017-12-02T09:59:48.580Z,1011.39
2017-12-02T10:00:48.590Z,1011.41
2017-12-02T10:01:48.608Z,1011.43
2017-12-02T10:02:48.617Z,1011.44
2017-12-02T10:03:48.631Z,1011.45
2017-12-02T10:04:48.644Z,1011.44
2017-12-02T10:05:48.660Z,1011.45
2017-12-02T10:06:48.678Z,1011.47
2017-12-02T10:07:48.684Z,1011.47
2017-12-02T10:08:48.699Z,1011.45
2017-12-02T10:09:48.714Z,1011.45
2017-12-02T10:10:48.730Z,1011.44
2017-12-02T10:11:48.742Z,1011.46
2017-12-02T10:12:48.754Z,1011.45
2017-12-02T10:13:48.769Z,1011.46
2017-12-02T10:14:48.953Z,1011.45
2017-12-02T10:15:48.804Z,1011.47
2017-12-02T10:16:48.812Z,1011.48
2017-12-02T10:17:48.826Z,1011.51
2017-12-02T10:18:48.992Z,1011.50
2017-12-02T10:19:48.854Z,1011.54
2017-12-02T10:20:48.866Z,1011.53
2017-12-02T10:21:48.882Z,1011.53
2017-12-02T10:22:48.897Z,1011.50
2017-12-02T10:23:48.907Z,1011.52
2017-12-02T10:24:48.921Z,1011.54
2017-12-02T10:25:48.936Z,1011.53
2017-12-02T10:26:48.952Z,1011.50
2017-12-02T10:27:48.962Z,1011.48
2017-12-02T10:28:49.022Z,1011.52
2017-12-02T10:29:48.993Z,1011.48
2017-12-02T10:30:49.007Z,1011.48
2017-12-02T10:31:49.022Z,1011.50
2017-12-02T10:32:49.042Z,1011.48
2017-12-02T10:33:49.053Z,1011.49
2017-12-02T10:34:49.065Z,1011.51
2017-12-02T10:35:49.079Z,1011.49
2017-12-02T10:36:49.093Z,1011.47
2017-12-02T10:37:49.106Z,1011.51
2017-12-02T10:38:49.122Z,1011.49
2017-12-02T10:39:49.136Z,1011.52
2017-12-02T10:40:49.153Z,1011.51
2017-12-02T10:41:49.174Z,1011.47
2017-12-02T10:42:49.178Z,1011.48
2017-12-02T10:43:49.194Z,1011.49
2017-12-02T10:44:49.204Z,1011.48
2017-12-02T10:45:49.221Z,1011.48
2017-12-02T10:46:49.234Z,1011.49
2017-12-02T10:47:49.247Z,1011.48
2017-12-02T10:48:49.260Z,1011.45
2017-12-02T10:49:49.276Z,1011.47
2017-12-02T10:50:49.294Z,1011.50
2017-12-02T10:51:49.310Z,1011.52
2017-12-02T10:52:49.322Z,1011.50
2017-12-02T10:53:49.332Z,1011.53
2017-12-02T10:54:49.351Z,1011.53
2017-12-02T10:55:49.494Z,1011.51
2017-12-02T10:56:49.375Z,1011.56
2017-12-02T10:57:49.393Z,1011.52
2017-12-02T10:58:49.404Z,1011.49
2017-12-02T10:59:49.419Z,1011.45
2017-12-02T11:00:49.433Z,1011.48
2017-12-02T11:01:49.449Z,1011.48
2017-12-02T11:02:49.460Z,1011.48
2017-12-02T11:03:49.475Z,1011.53
2017-12-02T11:04:49.492Z,1011.54
2017-12-02T11:05:49.563Z,1011.48
2017-12-02T11:06:49.523Z,1011.54
2017-12-02T11:07:49.531Z,1011.53
2017-12-02T11:08:49.548Z,1011.54
2017-12-02T11:09:49.562Z,1011.56
2017-12-02T11:10:49.579Z,1011.58
2017-12-02T11:11:49.594Z,1011.55
2017-12-02T11:12:49.608Z,1011.58
2017-12-02T11:13:49.638Z,1011.51
2017-12-02T11:14:49.634Z,1011.52
2017-12-02T11:15:49.650Z,1011.48
2017-12-02T11:16:49.664Z,1011.49
2017-12-02T11:17:49.679Z,1011.48
2017-12-02T11:18:49.693Z,1011.48
2017-12-02T11:19:49.708Z,1011.50
2017-12-02T11:20:49.760Z,1011.45
2017-12-02T11:21:49.743Z,1011.42
2017-12-02T11:22:49.764Z,1011.48
2017-12-02T11:23:49.763Z,1011.44
2017-12-02T11:24:49.781Z,1011.46
2017-12-02T11:25:49.793Z,1011.45
2017-12-02T11:26:49.813Z,1011.42
2017-12-02T11:27:49.822Z,1011.43
2017-12-02T11:28:49.837Z,1011.40
2017-12-02T11:29:49.858Z,1011.41
2017-12-02T11:30:49.867Z,1011.37
2017-12-02T11:31:49.881Z,1011.37
2017-12-02T11:32:49.894Z,1011.35
2017-12-02T11:33:49.909Z,1011.33
2017-12-02T11:34:49.925Z,1011.35
2017-12-02T11:35:49.939Z,1011.38
2017-12-02T11:36:49.955Z,1011.40
2017-12-02T11:37:49.969Z,1011.40
2017-12-02T11:38:49.982Z,1011.40
2017-12-02T11:39:49.998Z,1011.37
2017-12-02T11:40:50.012Z,1011.38
2017-12-02T11:41:50.026Z,1011.33
2017-12-02T11:42:50.039Z,1011.39
2017-12-02T11:43:50.055Z,1011.39
2017-12-02T11:44:50.129Z,1011.37
2017-12-02T11:45:50.085Z,1011.37
2017-12-02T11:46:50.104Z,1011.40
2017-12-02T11:47:50.113Z,1011.34
2017-12-02T11:48:50.125Z,1011.35
2017-12-02T11:49:50.149Z,1011.41
2017-12-02T11:50:50.159Z,1011.40
2017-12-02T11:51:50.170Z,1011.40
2017-12-02T11:52:50.183Z,1011.43
2017-12-02T11:53:50.198Z,1011.39
2017-12-02T11:54:50.213Z,1011.42
2017-12-02T11:55:50.232Z,1011.42
2017-12-02T11:56:50.257Z,1011.44
2017-12-02T11:57:50.265Z,1011.40
2017-12-02T11:58:50.272Z,1011.38
2017-12-02T11:59:50.287Z,1011.36
2017-12-02T12:00:50.301Z,1011.34
2017-12-02T12:01:50.344Z,1011.34
2017-12-02T12:02:50.332Z,1011.29
2017-12-02T12:03:50.344Z,1011.26
2017-12-02T12:04:50.364Z,1011.26
2017-12-02T12:05:50.372Z,1011.30